Cognac-Châteaubernard (BA 709) Air Base

Airport
ICAO code: 
LFBG
IATA Code: 
CNG
Summary
ICAO Region: 
EUR
Territory: 
Location: 
, Poitou-Charentes
Serving: 
Cognac
Elevation: 
102 ft
Coordinates: 
Aerial View: 
45° 39' 29.999" N, 0° 19' 3" W
Metar
Observation
LFBG 302030Z AUTO 19009KT 160V290 9999 FEW012 BKN020 BKN027 08/06 Q1023 BECMG 4000 -RA BKN004 OVC020
Station
Cognac
Date/Time
2021-11-30 20:30:00
Wind direction
190°
Wind speed
09 kts
Lowest cloud amount
few clouds
Temperature
8°C
Dew point
6°C
Humidity
87%
QNH
1023 hPa
Weather condition
n/a

Runways

Designator Length Width Surface Rops
9/27 1875 60 MAC No/No
5/23 2423 45 PEM No/No
Airport map: 
Aerial View: 

SKYbrary Partners:

Safety knowledge contributed by: